sensor_id;sensor_type;location;lat;lon;timestamp;pressure;altitude;pressure_sealevel;temperature;humidity
6532;BME280;3299;42.004;24.868;2023-12-20T00:02:13;98495.56;;;6.37;89.65
6532;BME280;3299;42.004;24.868;2023-12-20T00:04:38;98579.50;;;6.71;91.56
6532;BME280;3299;42.004;24.868;2023-12-20T00:07:04;98583.00;;;6.70;93.09
6532;BME280;3299;42.004;24.868;2023-12-20T00:09:29;98499.94;;;6.18;92.83
6532;BME280;3299;42.004;24.868;2023-12-20T00:11:54;98514.16;;;6.25;93.06
6532;BME280;3299;42.004;24.868;2023-12-20T00:14:20;98494.78;;;6.18;92.42
6532;BME280;3299;42.004;24.868;2023-12-20T00:16:45;98474.84;;;6.06;92.21
6532;BME280;3299;42.004;24.868;2023-12-20T00:19:10;98468.22;;;6.02;93.05
6532;BME280;3299;42.004;24.868;2023-12-20T00:21:36;98550.28;;;6.39;93.71
6532;BME280;3299;42.004;24.868;2023-12-20T00:24:01;98464.06;;;5.83;94.23
6532;BME280;3299;42.004;24.868;2023-12-20T00:26:27;98482.84;;;5.83;94.51
6532;BME280;3299;42.004;24.868;2023-12-20T00:28:53;98543.16;;;6.10;94.59
6532;BME280;3299;42.004;24.868;2023-12-20T00:31:18;98559.63;;;6.23;95.12
6532;BME280;3299;42.004;24.868;2023-12-20T00:33:44;98531.59;;;6.02;95.64
6532;BME280;3299;42.004;24.868;2023-12-20T00:36:11;98462.44;;;5.63;95.93
6532;BME280;3299;42.004;24.868;2023-12-20T00:38:36;98522.97;;;6.03;96.10
6532;BME280;3299;42.004;24.868;2023-12-20T00:41:02;98483.91;;;5.79;95.94
6532;BME280;3299;42.004;24.868;2023-12-20T00:43:27;98455.72;;;5.61;96.29
6532;BME280;3299;42.004;24.868;2023-12-20T00:45:53;98449.22;;;5.54;96.08
6532;BME280;3299;42.004;24.868;2023-12-20T00:48:18;98518.38;;;5.92;96.37
6532;BME280;3299;42.004;24.868;2023-12-20T00:50:44;98437.59;;;5.47;96.89
6532;BME280;3299;42.004;24.868;2023-12-20T00:53:09;98448.06;;;5.59;97.45
6532;BME280;3299;42.004;24.868;2023-12-20T00:55:34;98499.88;;;6.03;95.31
6532;BME280;3299;42.004;24.868;2023-12-20T00:58:00;98491.94;;;6.07;94.24
6532;BME280;3299;42.004;24.868;2023-12-20T01:00:25;98469.66;;;5.91;94.83
6532;BME280;3299;42.004;24.868;2023-12-20T01:02:51;98486.13;;;6.04;95.64
6532;BME280;3299;42.004;24.868;2023-12-20T01:05:17;98435.72;;;5.67;96.36
6532;BME280;3299;42.004;24.868;2023-12-20T01:07:43;98498.59;;;6.11;97.31
6532;BME280;3299;42.004;24.868;2023-12-20T01:10:08;98411.84;;;5.65;97.39
6532;BME280;3299;42.004;24.868;2023-12-20T01:12:36;98496.75;;;6.13;97.53
6532;BME280;3299;42.004;24.868;2023-12-20T01:15:01;98501.59;;;6.19;97.84
6532;BME280;3299;42.004;24.868;2023-12-20T01:17:27;98410.41;;;5.60;97.85
6532;BME280;3299;42.004;24.868;2023-12-20T01:19:52;98405.66;;;5.52;98.29
6532;BME280;3299;42.004;24.868;2023-12-20T01:22:17;98401.13;;;5.57;98.84
6532;BME280;3299;42.004;24.868;2023-12-20T01:24:43;98459.44;;;5.89;97.43
6532;BME280;3299;42.004;24.868;2023-12-20T01:27:08;98496.94;;;6.10;97.54
6532;BME280;3299;42.004;24.868;2023-12-20T01:29:34;98452.22;;;5.80;98.78
6532;BME280;3299;42.004;24.868;2023-12-20T01:31:59;98430.13;;;5.76;97.59
6532;BME280;3299;42.004;24.868;2023-12-20T01:34:24;98475.78;;;6.05;97.76
6532;BME280;3299;42.004;24.868;2023-12-20T01:36:50;98388.44;;;5.54;97.34
6532;BME280;3299;42.004;24.868;2023-12-20T01:39:17;98419.47;;;5.67;98.52
6532;BME280;3299;42.004;24.868;2023-12-20T01:41:42;98410.78;;;5.52;99.36
6532;BME280;3299;42.004;24.868;2023-12-20T01:44:08;98376.66;;;5.33;99.75
6532;BME280;3299;42.004;24.868;2023-12-20T01:46:33;98367.44;;;5.29;100.00
6532;BME280;3299;42.004;24.868;2023-12-20T01:48:59;98412.59;;;5.50;99.80
6532;BME280;3299;42.004;24.868;2023-12-20T01:51:24;98428.31;;;5.61;100.00
6532;BME280;3299;42.004;24.868;2023-12-20T01:53:54;98453.28;;;5.75;100.00
6532;BME280;3299;42.004;24.868;2023-12-20T01:56:20;98358.69;;;5.16;100.00
6532;BME280;3299;42.004;24.868;2023-12-20T01:58:46;98412.13;;;5.59;100.00
6532;BME280;3299;42.004;24.868;2023-12-20T02:01:13;98442.50;;;5.68;100.00
6532;BME280;3299;42.004;24.868;2023-12-20T02:03:40;98446.00;;;5.67;100.00
6532;BME280;3299;42.004;24.868;2023-12-20T02:06:07;98377.31;;;5.20;100.00
6532;BME280;3299;42.004;24.868;2023-12-20T02:08:33;98430.94;;;5.60;100.00
6532;BME280;3299;42.004;24.868;2023-12-20T02:10:59;98365.13;;;5.25;100.00
6532;BME280;3299;42.004;24.868;2023-12-20T02:13:25;98351.47;;;5.06;100.00
6532;BME280;3299;42.004;24.868;2023-12-20T02:15:52;98341.03;;;5.10;100.00
6532;BME280;3299;42.004;24.868;2023-12-20T02:18:17;98438.09;;;5.53;100.00
6532;BME280;3299;42.004;24.868;2023-12-20T02:20:42;98374.00;;;5.18;100.00
6532;BME280;3299;42.004;24.868;2023-12-20T02:23:08;98396.28;;;5.34;100.00
6532;BME280;3299;42.004;24.868;2023-12-20T02:25:33;98409.72;;;5.39;100.00
6532;BME280;3299;42.004;24.868;2023-12-20T02:27:59;98356.41;;;5.10;100.00
6532;BME280;3299;42.004;24.868;2023-12-20T02:30:24;98372.25;;;5.18;100.00
6532;BME280;3299;42.004;24.868;2023-12-20T02:32:50;98344.81;;;5.03;100.00
6532;BME280;3299;42.004;24.868;2023-12-20T02:35:16;98350.75;;;5.04;100.00
6532;BME280;3299;42.004;24.868;2023-12-20T02:37:41;98313.84;;;4.89;100.00
6532;BME280;3299;42.004;24.868;2023-12-20T02:40:07;98380.16;;;5.32;100.00
6532;BME280;3299;42.004;24.868;2023-12-20T02:42:33;98400.66;;;5.49;100.00
6532;BME280;3299;42.004;24.868;2023-12-20T02:44:58;98360.13;;;5.22;98.58
6532;BME280;3299;42.004;24.868;2023-12-20T02:47:24;98389.88;;;5.43;98.85
6532;BME280;3299;42.004;24.868;2023-12-20T02:49:49;98338.00;;;5.19;98.04
6532;BME280;3299;42.004;24.868;2023-12-20T02:52:15;98313.19;;;5.03;98.03
6532;BME280;3299;42.004;24.868;2023-12-20T02:54:40;98295.22;;;4.86;99.16
6532;BME280;3299;42.004;24.868;2023-12-20T02:57:06;98373.88;;;5.38;98.54
6532;BME280;3299;42.004;24.868;2023-12-20T02:59:31;98395.38;;;5.52;96.79
6532;BME280;3299;42.004;24.868;2023-12-20T03:01:57;98286.50;;;4.90;97.99
6532;BME280;3299;42.004;24.868;2023-12-20T03:04:22;98379.97;;;5.35;98.67
6532;BME280;3299;42.004;24.868;2023-12-20T03:06:47;98369.41;;;5.24;99.42
6532;BME280;3299;42.004;24.868;2023-12-20T03:09:13;98280.34;;;4.75;99.73
6532;BME280;3299;42.004;24.868;2023-12-20T03:11:38;98385.56;;;5.43;100.00
6532;BME280;3299;42.004;24.868;2023-12-20T03:14:04;98380.38;;;5.45;100.00
6532;BME280;3299;42.004;24.868;2023-12-20T03:16:29;98325.28;;;5.18;97.42
6532;BME280;3299;42.004;24.868;2023-12-20T03:18:56;98366.69;;;5.27;93.97
6532;BME280;3299;42.004;24.868;2023-12-20T03:21:21;98341.03;;;5.10;94.11
6532;BME280;3299;42.004;24.868;2023-12-20T03:23:47;98379.22;;;5.33;96.21
6532;BME280;3299;42.004;24.868;2023-12-20T03:26:13;98302.91;;;4.86;94.70
6532;BME280;3299;42.004;24.868;2023-12-20T03:28:39;98267.75;;;4.71;94.45
6532;BME280;3299;42.004;24.868;2023-12-20T03:31:04;98353.56;;;5.16;95.79
6532;BME280;3299;42.004;24.868;2023-12-20T03:33:30;98336.50;;;4.98;95.59
6532;BME280;3299;42.004;24.868;2023-12-20T03:35:55;98352.19;;;5.09;94.80
6532;BME280;3299;42.004;24.868;2023-12-20T03:38:21;98351.41;;;5.07;96.16
6532;BME280;3299;42.004;24.868;2023-12-20T03:40:49;98302.44;;;4.78;97.18
6532;BME280;3299;42.004;24.868;2023-12-20T03:43:15;98244.47;;;4.40;98.33
6532;BME280;3299;42.004;24.868;2023-12-20T03:45:41;98319.81;;;4.90;98.58
6532;BME280;3299;42.004;24.868;2023-12-20T03:48:07;98296.66;;;4.74;99.42
6532;BME280;3299;42.004;24.868;2023-12-20T03:50:32;98258.59;;;4.48;99.04
6532;BME280;3299;42.004;24.868;2023-12-20T03:52:57;98319.41;;;4.80;99.44
6532;BME280;3299;42.004;24.868;2023-12-20T03:55:23;98348.09;;;5.05;96.45
6532;BME280;3299;42.004;24.868;2023-12-20T03:57:48;98321.53;;;4.89;95.40
6532;BME280;3299;42.004;24.868;2023-12-20T04:00:14;98317.81;;;4.78;95.09
6532;BME280;3299;42.004;24.868;2023-12-20T04:02:41;98355.06;;;5.03;96.51
6532;BME280;3299;42.004;24.868;2023-12-20T04:05:07;98306.47;;;4.65;95.86
6532;BME280;3299;42.004;24.868;2023-12-20T04:07:33;98347.44;;;4.83;95.23
6532;BME280;3299;42.004;24.868;2023-12-20T04:09:59;98220.16;;;3.94;96.67
6532;BME280;3299;42.004;24.868;2023-12-20T04:12:25;98341.69;;;4.78;96.54
6532;BME280;3299;42.004;24.868;2023-12-20T04:14:51;98349.03;;;4.86;96.94
6532;BME280;3299;42.004;24.868;2023-12-20T04:17:17;98355.69;;;4.90;97.55
6532;BME280;3299;42.004;24.868;2023-12-20T04:19:43;98328.13;;;4.76;98.79
6532;BME280;3299;42.004;24.868;2023-12-20T04:22:08;98275.22;;;4.40;99.86
6532;BME280;3299;42.004;24.868;2023-12-20T04:24:33;98262.34;;;4.41;99.89
6532;BME280;3299;42.004;24.868;2023-12-20T04:26:59;98253.13;;;4.37;99.44
6532;BME280;3299;42.004;24.868;2023-12-20T04:29:24;98291.59;;;4.54;99.03
6532;BME280;3299;42.004;24.868;2023-12-20T04:31:50;98246.97;;;4.23;96.45
6532;BME280;3299;42.004;24.868;2023-12-20T04:34:17;98324.50;;;4.63;97.09
6532;BME280;3299;42.004;24.868;2023-12-20T04:36:42;98269.81;;;4.46;97.92
6532;BME280;3299;42.004;24.868;2023-12-20T04:39:08;98333.94;;;4.80;98.39
6532;BME280;3299;42.004;24.868;2023-12-20T04:41:33;98291.03;;;4.66;97.84
6532;BME280;3299;42.004;24.868;2023-12-20T04:43:58;98262.50;;;4.55;98.37
6532;BME280;3299;42.004;24.868;2023-12-20T04:46:24;98225.13;;;4.34;99.09
6532;BME280;3299;42.004;24.868;2023-12-20T04:48:49;98322.22;;;4.93;99.80
6532;BME280;3299;42.004;24.868;2023-12-20T04:51:15;98323.81;;;4.95;100.00
6532;BME280;3299;42.004;24.868;2023-12-20T04:53:40;98278.53;;;4.77;98.84
6532;BME280;3299;42.004;24.868;2023-12-20T04:56:06;98269.31;;;4.73;97.37
6532;BME280;3299;42.004;24.868;2023-12-20T04:58:31;98283.91;;;4.73;96.46
6532;BME280;3299;42.004;24.868;2023-12-20T05:00:56;98233.25;;;4.42;96.93
6532;BME280;3299;42.004;24.868;2023-12-20T05:03:22;98288.78;;;4.77;97.68
6532;BME280;3299;42.004;24.868;2023-12-20T05:05:47;98258.56;;;4.67;98.29
6532;BME280;3299;42.004;24.868;2023-12-20T05:08:13;98294.53;;;4.82;98.89
6532;BME280;3299;42.004;24.868;2023-12-20T05:10:38;98238.09;;;4.48;100.00
6532;BME280;3299;42.004;24.868;2023-12-20T05:13:05;98266.44;;;4.62;100.00
6532;BME280;3299;42.004;24.868;2023-12-20T05:15:31;98314.75;;;4.88;100.00
6532;BME280;3299;42.004;24.868;2023-12-20T05:17:56;98314.00;;;4.86;100.00
6532;BME280;3299;42.004;24.868;2023-12-20T05:20:21;98240.59;;;4.50;100.00
6532;BME280;3299;42.004;24.868;2023-12-20T05:22:48;98292.88;;;4.81;100.00
6532;BME280;3299;42.004;24.868;2023-12-20T05:25:13;98231.44;;;4.44;100.00
6532;BME280;3299;42.004;24.868;2023-12-20T05:27:38;98257.31;;;4.57;100.00
6532;BME280;3299;42.004;24.868;2023-12-20T05:30:05;98181.28;;;4.05;100.00
6532;BME280;3299;42.004;24.868;2023-12-20T05:32:31;98233.53;;;4.36;100.00
6532;BME280;3299;42.004;24.868;2023-12-20T05:34:56;98284.13;;;4.68;100.00
6532;BME280;3299;42.004;24.868;2023-12-20T05:37:21;98236.44;;;4.47;100.00
6532;BME280;3299;42.004;24.868;2023-12-20T05:39:47;98281.41;;;4.71;100.00
6532;BME280;3299;42.004;24.868;2023-12-20T05:42:12;98278.44;;;4.62;100.00
6532;BME280;3299;42.004;24.868;2023-12-20T05:44:37;98182.53;;;3.96;100.00
6532;BME280;3299;42.004;24.868;2023-12-20T05:47:03;98235.34;;;4.34;100.00
6532;BME280;3299;42.004;24.868;2023-12-20T05:49:28;98231.34;;;4.29;100.00
6532;BME280;3299;42.004;24.868;2023-12-20T05:51:54;98244.25;;;4.44;100.00
6532;BME280;3299;42.004;24.868;2023-12-20T05:54:19;98212.78;;;4.24;100.00
6532;BME280;3299;42.004;24.868;2023-12-20T05:56:45;98252.84;;;4.43;100.00
6532;BME280;3299;42.004;24.868;2023-12-20T05:59:10;98201.63;;;4.08;100.00
6532;BME280;3299;42.004;24.868;2023-12-20T06:01:35;98218.00;;;4.22;100.00
6532;BME280;3299;42.004;24.868;2023-12-20T06:04:01;98224.72;;;4.25;100.00
6532;BME280;3299;42.004;24.868;2023-12-20T06:06:26;98238.94;;;4.30;100.00
6532;BME280;3299;42.004;24.868;2023-12-20T06:08:51;98247.19;;;4.18;100.00
6532;BME280;3299;42.004;24.868;2023-12-20T06:11:17;98167.25;;;3.76;100.00
6532;BME280;3299;42.004;24.868;2023-12-20T06:13:42;98207.09;;;4.00;100.00
6532;BME280;3299;42.004;24.868;2023-12-20T06:16:08;98214.19;;;4.12;100.00
6532;BME280;3299;42.004;24.868;2023-12-20T06:18:33;98170.63;;;3.95;100.00
6532;BME280;3299;42.004;24.868;2023-12-20T06:20:58;98251.66;;;4.50;100.00
6532;BME280;3299;42.004;24.868;2023-12-20T06:23:24;98193.50;;;4.17;100.00
6532;BME280;3299;42.004;24.868;2023-12-20T06:25:49;98242.72;;;4.23;100.00
6532;BME280;3299;42.004;24.868;2023-12-20T06:28:15;98177.28;;;3.81;100.00
6532;BME280;3299;42.004;24.868;2023-12-20T06:30:40;98156.59;;;3.85;100.00
6532;BME280;3299;42.004;24.868;2023-12-20T06:33:06;98118.38;;;3.64;100.00
6532;BME280;3299;42.004;24.868;2023-12-20T06:35:32;98251.94;;;4.44;100.00
6532;BME280;3299;42.004;24.868;2023-12-20T06:37:57;98250.16;;;4.46;100.00
6532;BME280;3299;42.004;24.868;2023-12-20T06:40:23;98153.63;;;3.94;100.00
6532;BME280;3299;42.004;24.868;2023-12-20T06:42:48;98236.28;;;4.50;100.00
6532;BME280;3299;42.004;24.868;2023-12-20T06:45:14;98219.78;;;4.39;100.00
6532;BME280;3299;42.004;24.868;2023-12-20T06:47:40;98229.22;;;4.55;100.00
6532;BME280;3299;42.004;24.868;2023-12-20T06:50:05;98246.66;;;4.66;100.00
6532;BME280;3299;42.004;24.868;2023-12-20T06:52:31;98165.88;;;4.23;100.00
6532;BME280;3299;42.004;24.868;2023-12-20T06:54:56;98245.09;;;4.80;100.00
6532;BME280;3299;42.004;24.868;2023-12-20T06:57:21;98211.75;;;4.63;100.00
6532;BME280;3299;42.004;24.868;2023-12-20T06:59:47;98252.19;;;4.92;100.00
6532;BME280;3299;42.004;24.868;2023-12-20T07:02:12;98195.41;;;4.66;100.00
6532;BME280;3299;42.004;24.868;2023-12-20T07:04:41;98250.69;;;5.05;100.00
6532;BME280;3299;42.004;24.868;2023-12-20T07:07:07;98221.56;;;5.06;100.00
6532;BME280;3299;42.004;24.868;2023-12-20T07:09:33;98244.63;;;5.23;100.00
6532;BME280;3299;42.004;24.868;2023-12-20T07:11:58;98236.63;;;5.46;94.83
6532;BME280;3299;42.004;24.868;2023-12-20T07:14:24;98136.75;;;4.94;92.73
6532;BME280;3299;42.004;24.868;2023-12-20T07:16:49;98215.25;;;5.46;92.51
6532;BME280;3299;42.004;24.868;2023-12-20T07:19:15;98176.22;;;5.24;93.65
6532;BME280;3299;42.004;24.868;2023-12-20T07:21:40;98212.47;;;5.50;95.01
6532;BME280;3299;42.004;24.868;2023-12-20T07:24:05;98204.91;;;5.47;95.69
6532;BME280;3299;42.004;24.868;2023-12-20T07:26:31;98181.31;;;5.41;96.44
6532;BME280;3299;42.004;24.868;2023-12-20T07:28:56;98228.88;;;5.80;97.22
6532;BME280;3299;42.004;24.868;2023-12-20T07:31:23;98133.13;;;5.30;97.03
6532;BME280;3299;42.004;24.868;2023-12-20T07:33:49;98186.97;;;5.63;97.98
6532;BME280;3299;42.004;24.868;2023-12-20T07:36:15;98229.56;;;5.99;94.45
6532;BME280;3299;42.004;24.868;2023-12-20T07:38:40;98208.09;;;6.00;92.95
6532;BME280;3299;42.004;24.868;2023-12-20T07:41:09;98184.50;;;5.94;92.37
6532;BME280;3299;42.004;24.868;2023-12-20T07:43:35;98154.09;;;5.86;91.56
6532;BME280;3299;42.004;24.868;2023-12-20T07:46:05;98214.72;;;6.35;89.64
6532;BME280;3299;42.004;24.868;2023-12-20T07:48:30;98122.63;;;5.83;89.81
6532;BME280;3299;42.004;24.868;2023-12-20T07:50:55;98116.06;;;5.93;89.60
6532;BME280;3299;42.004;24.868;2023-12-20T07:53:21;98131.22;;;6.13;89.69
6532;BME280;3299;42.004;24.868;2023-12-20T07:55:46;98144.88;;;6.29;89.97
6532;BME280;3299;42.004;24.868;2023-12-20T07:58:12;98181.53;;;6.62;89.84
6532;BME280;3299;42.004;24.868;2023-12-20T08:00:37;98169.78;;;6.58;91.24
6532;BME280;3299;42.004;24.868;2023-12-20T08:03:03;98114.44;;;6.37;92.60
6532;BME280;3299;42.004;24.868;2023-12-20T08:05:28;98211.84;;;7.00;93.96
6532;BME280;3299;42.004;24.868;2023-12-20T08:07:54;98190.84;;;7.08;95.08
6532;BME280;3299;42.004;24.868;2023-12-20T08:10:19;98154.16;;;6.90;95.49
6532;BME280;3299;42.004;24.868;2023-12-20T08:12:44;98116.31;;;6.78;96.33
6532;BME280;3299;42.004;24.868;2023-12-20T08:15:10;98105.84;;;6.81;96.12
6532;BME280;3299;42.004;24.868;2023-12-20T08:17:35;98143.72;;;7.07;95.70
6532;BME280;3299;42.004;24.868;2023-12-20T08:20:01;98202.88;;;7.51;95.49
6532;BME280;3299;42.004;24.868;2023-12-20T08:22:26;98121.94;;;7.13;94.28
6532;BME280;3299;42.004;24.868;2023-12-20T08:24:52;98179.31;;;7.57;93.46
6532;BME280;3299;42.004;24.868;2023-12-20T08:27:17;98139.88;;;7.42;93.20
6532;BME280;3299;42.004;24.868;2023-12-20T08:29:44;98136.38;;;7.43;92.33
6532;BME280;3299;42.004;24.868;2023-12-20T08:32:10;98103.38;;;7.36;92.47
6532;BME280;3299;42.004;24.868;2023-12-20T08:34:35;98140.41;;;7.61;92.78
6532;BME280;3299;42.004;24.868;2023-12-20T08:37:01;98153.91;;;7.79;92.32
6532;BME280;3299;42.004;24.868;2023-12-20T08:39:26;98107.13;;;7.58;91.63
6532;BME280;3299;42.004;24.868;2023-12-20T08:41:51;98130.47;;;7.83;91.71
6532;BME280;3299;42.004;24.868;2023-12-20T08:44:17;98100.31;;;7.71;91.86
6532;BME280;3299;42.004;24.868;2023-12-20T08:46:43;98131.13;;;7.99;91.65
6532;BME280;3299;42.004;24.868;2023-12-20T08:49:08;98165.84;;;8.34;91.06
6532;BME280;3299;42.004;24.868;2023-12-20T08:51:34;98083.34;;;7.95;91.42
6532;BME280;3299;42.004;24.868;2023-12-20T08:54:00;98102.56;;;8.16;89.50
6532;BME280;3299;42.004;24.868;2023-12-20T08:56:25;98156.38;;;8.61;89.81
6532;BME280;3299;42.004;24.868;2023-12-20T08:58:51;98074.78;;;8.21;89.30
6532;BME280;3299;42.004;24.868;2023-12-20T09:01:16;98052.34;;;8.09;89.06
6532;BME280;3299;42.004;24.868;2023-12-20T09:03:41;98131.19;;;8.52;89.43
6532;BME280;3299;42.004;24.868;2023-12-20T09:06:07;98128.31;;;8.57;88.42
6532;BME280;3299;42.004;24.868;2023-12-20T09:08:32;98110.94;;;8.46;88.24
6532;BME280;3299;42.004;24.868;2023-12-20T09:10:59;98110.75;;;8.49;88.19
6532;BME280;3299;42.004;24.868;2023-12-20T09:13:25;98070.88;;;8.28;88.65
6532;BME280;3299;42.004;24.868;2023-12-20T09:15:56;98099.50;;;8.50;88.94
6532;BME280;3299;42.004;24.868;2023-12-20T09:18:21;98099.59;;;8.49;88.89
6532;BME280;3299;42.004;24.868;2023-12-20T09:20:47;98011.53;;;8.03;88.78
6532;BME280;3299;42.004;24.868;2023-12-20T09:23:12;98011.84;;;8.11;87.03
6532;BME280;3299;42.004;24.868;2023-12-20T09:25:38;97980.91;;;7.99;87.24
6532;BME280;3299;42.004;24.868;2023-12-20T09:28:03;98055.47;;;8.41;87.78
6532;BME280;3299;42.004;24.868;2023-12-20T09:30:29;97999.19;;;8.08;88.11
6532;BME280;3299;42.004;24.868;2023-12-20T09:32:55;97989.41;;;8.13;87.46
6532;BME280;3299;42.004;24.868;2023-12-20T09:35:20;98019.59;;;8.38;86.31
6532;BME280;3299;42.004;24.868;2023-12-20T09:37:46;98017.81;;;8.38;86.48
6532;BME280;3299;42.004;24.868;2023-12-20T09:40:13;97983.47;;;8.25;85.41
6532;BME280;3299;42.004;24.868;2023-12-20T09:42:57;98063.97;;;8.80;85.99
6532;BME280;3299;42.004;24.868;2023-12-20T09:45:23;98059.63;;;8.81;86.50
6532;BME280;3299;42.004;24.868;2023-12-20T09:47:52;98051.91;;;8.93;86.97
6532;BME280;3299;42.004;24.868;2023-12-20T09:50:20;98036.09;;;8.98;86.55
6532;BME280;3299;42.004;24.868;2023-12-20T09:52:52;97988.44;;;8.91;85.72
6532;BME280;3299;42.004;24.868;2023-12-20T09:55:18;98034.59;;;9.31;85.14
6532;BME280;3299;42.004;24.868;2023-12-20T09:57:48;97950.44;;;8.93;84.89
6532;BME280;3299;42.004;24.868;2023-12-20T10:00:15;97972.47;;;9.22;82.02
6532;BME280;3299;42.004;24.868;2023-12-20T10:02:45;98032.47;;;9.61;81.54
6532;BME280;3299;42.004;24.868;2023-12-20T10:05:16;98023.56;;;9.65;80.69
6532;BME280;3299;42.004;24.868;2023-12-20T10:07:48;98010.56;;;9.67;80.18
6532;BME280;3299;42.004;24.868;2023-12-20T10:10:14;98024.56;;;9.75;80.16
6532;BME280;3299;42.004;24.868;2023-12-20T10:12:40;98005.59;;;9.63;80.21
6532;BME280;3299;42.004;24.868;2023-12-20T10:15:06;98006.63;;;9.61;80.38
6532;BME280;3299;42.004;24.868;2023-12-20T10:17:31;98005.00;;;9.60;80.72
6532;BME280;3299;42.004;24.868;2023-12-20T10:19:57;97966.63;;;9.43;80.38
6532;BME280;3299;42.004;24.868;2023-12-20T10:22:23;97926.63;;;9.25;80.45
6532;BME280;3299;42.004;24.868;2023-12-20T10:24:48;98005.31;;;9.79;79.35
6532;BME280;3299;42.004;24.868;2023-12-20T10:27:14;97983.69;;;9.69;80.40
6532;BME280;3299;42.004;24.868;2023-12-20T10:29:39;97987.84;;;9.82;80.33
6532;BME280;3299;42.004;24.868;2023-12-20T10:32:25;97981.97;;;9.80;80.70
6532;BME280;3299;42.004;24.868;2023-12-20T10:34:51;97956.91;;;9.70;81.32
6532;BME280;3299;42.004;24.868;2023-12-20T10:37:16;97886.31;;;9.35;81.64
6532;BME280;3299;42.004;24.868;2023-12-20T10:39:42;97877.19;;;9.42;81.81
6532;BME280;3299;42.004;24.868;2023-12-20T10:42:11;97935.34;;;9.82;81.63
6532;BME280;3299;42.004;24.868;2023-12-20T10:44:36;97940.13;;;9.99;81.08
6532;BME280;3299;42.004;24.868;2023-12-20T10:47:03;97882.50;;;9.75;80.39
6532;BME280;3299;42.004;24.868;2023-12-20T10:49:30;97925.81;;;10.06;80.21
6532;BME280;3299;42.004;24.868;2023-12-20T10:51:56;97939.84;;;10.14;80.92
6532;BME280;3299;42.004;24.868;2023-12-20T10:54:25;97943.13;;;10.16;81.36
6532;BME280;3299;42.004;24.868;2023-12-20T10:56:51;97936.22;;;10.28;79.99
6532;BME280;3299;42.004;24.868;2023-12-20T10:59:19;97850.78;;;9.84;80.10
6532;BME280;3299;42.004;24.868;2023-12-20T11:01:46;97896.13;;;10.22;80.26
6532;BME280;3299;42.004;24.868;2023-12-20T11:04:17;97899.19;;;10.27;79.83
6532;BME280;3299;42.004;24.868;2023-12-20T11:06:57;97859.47;;;10.07;80.14
6532;BME280;3299;42.004;24.868;2023-12-20T11:09:31;97926.13;;;10.47;80.11
6532;BME280;3299;42.004;24.868;2023-12-20T11:12:21;97915.78;;;10.47;79.72
6532;BME280;3299;42.004;24.868;2023-12-20T11:14:53;97872.06;;;10.22;80.35
6532;BME280;3299;42.004;24.868;2023-12-20T11:17:21;97902.84;;;10.47;81.56
6532;BME280;3299;42.004;24.868;2023-12-20T11:22:19;97852.53;;;10.29;80.70
6532;BME280;3299;42.004;24.868;2023-12-20T11:24:45;97890.41;;;10.63;80.01
6532;BME280;3299;42.004;24.868;2023-12-20T11:27:13;97889.94;;;10.69;79.60
6532;BME280;3299;42.004;24.868;2023-12-20T11:29:38;97882.06;;;10.59;80.11
6532;BME280;3299;42.004;24.868;2023-12-20T11:34:51;97865.22;;;10.43;81.05
6532;BME280;3299;42.004;24.868;2023-12-20T11:37:19;97782.81;;;9.94;82.02
6532;BME280;3299;42.004;24.868;2023-12-20T11:39:45;97864.53;;;10.52;82.43
6532;BME280;3299;42.004;24.868;2023-12-20T11:42:11;97849.72;;;10.43;82.73
6532;BME280;3299;42.004;24.868;2023-12-20T11:44:37;97790.00;;;10.13;82.95
6532;BME280;3299;42.004;24.868;2023-12-20T11:47:03;97804.72;;;10.23;83.51
6532;BME280;3299;42.004;24.868;2023-12-20T11:49:28;97839.03;;;10.47;84.58
6532;BME280;3299;42.004;24.868;2023-12-20T11:51:56;97828.13;;;10.44;84.82
6532;BME280;3299;42.004;24.868;2023-12-20T11:54:22;97828.81;;;10.46;85.36
6532;BME280;3299;42.004;24.868;2023-12-20T11:56:48;97828.13;;;10.44;85.90
6532;BME280;3299;42.004;24.868;2023-12-20T11:59:14;97827.75;;;10.48;83.89
6532;BME280;3299;42.004;24.868;2023-12-20T12:01:48;97801.78;;;10.28;83.67
6532;BME280;3299;42.004;24.868;2023-12-20T12:04:14;97765.22;;;10.10;83.70
6532;BME280;3299;42.004;24.868;2023-12-20T12:06:40;97815.28;;;10.42;83.63
6532;BME280;3299;42.004;24.868;2023-12-20T12:09:06;97777.56;;;10.18;83.93
6532;BME280;3299;42.004;24.868;2023-12-20T12:11:31;97795.19;;;10.35;83.44
6532;BME280;3299;42.004;24.868;2023-12-20T12:13:56;97728.44;;;9.96;83.64
6532;BME280;3299;42.004;24.868;2023-12-20T12:16:22;97750.25;;;10.03;83.88
6532;BME280;3299;42.004;24.868;2023-12-20T12:18:55;97808.81;;;10.37;84.31
6532;BME280;3299;42.004;24.868;2023-12-20T12:21:21;97808.00;;;10.36;84.48
6532;BME280;3299;42.004;24.868;2023-12-20T12:23:46;97737.25;;;10.04;85.36
6532;BME280;3299;42.004;24.868;2023-12-20T12:26:12;97757.13;;;10.15;85.64
6532;BME280;3299;42.004;24.868;2023-12-20T12:28:40;97755.47;;;10.14;85.50
6532;BME280;3299;42.004;24.868;2023-12-20T12:31:06;97733.13;;;10.02;85.54
6532;BME280;3299;42.004;24.868;2023-12-20T12:33:32;97715.75;;;9.93;85.81
6532;BME280;3299;42.004;24.868;2023-12-20T12:35:57;97768.28;;;10.26;86.32
6532;BME280;3299;42.004;24.868;2023-12-20T12:38:26;97696.50;;;9.86;86.58
6532;BME280;3299;42.004;24.868;2023-12-20T12:40:51;97696.25;;;9.89;86.39
6532;BME280;3299;42.004;24.868;2023-12-20T12:43:18;97724.00;;;10.09;86.99
6532;BME280;3299;42.004;24.868;2023-12-20T12:45:44;97765.09;;;10.34;87.33
6532;BME280;3299;42.004;24.868;2023-12-20T12:48:10;97742.91;;;10.20;87.49
6532;BME280;3299;42.004;24.868;2023-12-20T12:50:35;97690.88;;;9.92;87.14
6532;BME280;3299;42.004;24.868;2023-12-20T12:53:01;97773.66;;;10.45;86.46
6532;BME280;3299;42.004;24.868;2023-12-20T12:55:27;97694.13;;;9.94;86.85
6532;BME280;3299;42.004;24.868;2023-12-20T12:57:53;97728.72;;;10.15;86.79
6532;BME280;3299;42.004;24.868;2023-12-20T13:00:19;97733.97;;;10.24;87.10
6532;BME280;3299;42.004;24.868;2023-12-20T13:02:44;97728.72;;;10.15;87.38
6532;BME280;3299;42.004;24.868;2023-12-20T13:05:10;97764.94;;;10.46;87.44
6532;BME280;3299;42.004;24.868;2023-12-20T13:07:35;97771.78;;;10.47;87.11
6532;BME280;3299;42.004;24.868;2023-12-20T13:10:03;97686.84;;;9.99;87.36
6532;BME280;3299;42.004;24.868;2023-12-20T13:12:29;97723.06;;;10.21;87.50
6532;BME280;3299;42.004;24.868;2023-12-20T13:14:54;97707.31;;;10.13;87.81
6532;BME280;3299;42.004;24.868;2023-12-20T13:17:20;97750.28;;;10.36;88.20